Time;durP1;ratioP1;P1;durP2;ratioP2;P2;SDS_P1;SDS_P2;PMS_P1;PMS_P2;Temp;Humidity;BMP_temperature;BMP_pressure;BME280_temperature;BME280_humidity;BME280_pressure;Samples;Min_cycle;Max_cycle;Signal;HPM_P1;HPM_P2
2022/02/11 00:07:56;;;;;;;18.65;11.60;;;;;;;-1.25;100.00;95565.50;5028815;28;20037;-77
2022/02/11 00:10:23;;;;;;;17.17;12.00;;;;;;;-1.31;100.00;95567.56;5029308;28;20033;-77
2022/02/11 00:12:49;;;;;;;14.50;11.30;;;;;;;-1.40;100.00;95571.44;5019911;28;20519;-77
2022/02/11 00:17:54;;;;;;;10.05;8.65;;;;;;;-1.50;100.00;95555.06;5029265;28;20485;-77
2022/02/11 00:20:20;;;;;;;9.23;7.65;;;;;;;-1.46;100.00;95559.06;5027881;28;20029;-77
2022/02/11 00:22:46;;;;;;;13.23;9.43;;;;;;;-1.50;100.00;95572.81;5028417;28;20438;-77
2022/02/11 00:25:11;;;;;;;11.60;9.18;;;;;;;-1.55;100.00;95569.72;5029019;28;20030;-77
2022/02/11 00:33:26;;;;;;;16.42;11.15;;;;;;;-1.60;100.00;95585.19;4983974;28;20030;-77
2022/02/11 00:35:57;;;;;;;8.68;7.07;;;;;;;-1.97;100.00;95585.50;5036093;28;20521;-77
2022/02/11 00:38:35;;;;;;;10.27;8.23;;;;;;;-1.81;100.00;95578.72;5028079;28;20033;-77
2022/02/11 00:41:27;;;;;;;8.63;7.60;;;;;;;-1.91;100.00;95576.75;5012949;28;20037;-77
2022/02/11 01:02:51;;;;;;;13.93;9.35;;;;;;;-1.56;100.00;95579.94;5023861;28;20108;-77
2022/02/11 01:05:16;;;;;;;13.02;9.55;;;;;;;-1.60;100.00;95574.22;5018688;28;20022;-78
2022/02/11 01:07:41;;;;;;;11.57;9.27;;;;;;;-1.60;100.00;95575.03;5008917;28;20025;-78
2022/02/11 01:10:07;;;;;;;12.18;9.38;;;;;;;-1.74;100.00;95572.44;5013000;28;20022;-78
2022/02/11 01:12:33;;;;;;;10.57;8.65;;;;;;;-1.70;100.00;95566.28;5027951;28;20033;-78
2022/02/11 01:14:59;;;;;;;16.58;9.43;;;;;;;-1.70;100.00;95571.34;5011918;28;20026;-78
2022/02/11 01:17:45;;;;;;;10.73;9.48;;;;;;;-1.87;100.00;95558.75;5026341;28;20064;-77
2022/02/11 01:23:05;;;;;;;13.50;9.82;;;;;;;-2.13;100.00;95547.44;5028100;28;20022;-78
2022/02/11 01:28:35;;;;;;;13.85;9.45;;;;;;;-2.24;100.00;95553.94;5024750;28;20415;-78
2022/02/11 01:38:44;;;;;;;15.48;11.52;;;;;;;-1.96;100.00;95548.28;5033321;28;20068;-77
2022/02/11 01:57:34;;;;;;;20.88;13.15;;;;;;;-1.80;100.00;95537.22;5034747;28;20063;-79
2022/02/11 02:13:43;;;;;;;25.95;15.20;;;;;;;-1.97;100.00;95522.09;5037716;28;20107;-80
2022/02/11 02:35:41;;;;;;;39.42;21.33;;;;;;;-1.96;100.00;95538.13;5015564;28;20030;-79
2022/02/11 02:59:15;;;;;;;29.30;18.17;;;;;;;-2.09;100.00;95532.88;5032687;28;20568;-79
2022/02/11 03:02:01;;;;;;;27.63;17.60;;;;;;;-2.00;100.00;95532.41;5023271;28;20025;-79
2022/02/11 04:55:27;;;;;;;104.22;52.90;;;;;;;-2.71;100.00;95552.13;4997608;28;20033;-78
2022/02/11 05:00:40;;;;;;;57.70;32.22;;;;;;;-2.69;100.00;95552.03;4997098;28;20037;-77
2022/02/11 05:03:06;;;;;;;41.75;24.73;;;;;;;-2.59;100.00;95544.78;4998288;28;20114;-79
2022/02/11 05:05:48;;;;;;;38.50;23.58;;;;;;;-2.75;100.00;95553.16;4981987;28;20018;-77
2022/02/11 05:08:25;;;;;;;31.95;20.85;;;;;;;-2.76;100.00;95551.50;4995044;28;20045;-77
2022/02/11 05:10:53;;;;;;;29.63;19.75;;;;;;;-2.76;100.00;95548.19;4995945;28;20040;-78
2022/02/11 05:13:19;;;;;;;27.20;17.05;;;;;;;-2.68;100.00;95544.38;4994658;28;20030;-78
2022/02/11 05:15:44;;;;;;;25.30;16.67;;;;;;;-2.66;100.00;95536.66;4980118;28;20049;-75
2022/02/11 05:18:10;;;;;;;29.20;18.45;;;;;;;-2.73;100.00;95532.84;4989406;28;20034;-76
2022/02/11 05:20:36;;;;;;;30.35;19.25;;;;;;;-2.69;100.00;95537.66;4989485;28;20046;-76
2022/02/11 05:23:08;;;;;;;29.63;18.98;;;;;;;-2.71;100.00;95534.38;4989363;28;20037;-76
2022/02/11 05:25:37;;;;;;;35.22;21.65;;;;;;;-2.66;100.00;95537.50;4989336;28;20045;-76
2022/02/11 05:28:04;;;;;;;34.75;21.45;;;;;;;-2.59;100.00;95537.19;4974040;28;20030;-76
2022/02/11 05:30:30;;;;;;;31.50;20.80;;;;;;;-2.48;100.00;95543.38;4988928;28;20506;-77
2022/02/11 05:32:56;;;;;;;34.78;22.65;;;;;;;-2.40;100.00;95542.94;4976165;28;20031;-77
2022/02/11 05:35:21;;;;;;;28.90;19.77;;;;;;;-2.31;100.00;95539.97;4988192;28;20046;-76
2022/02/11 05:37:48;;;;;;;70.05;41.92;;;;;;;-2.22;100.00;95553.00;4991731;28;20495;-76
2022/02/11 05:40:13;;;;;;;42.55;25.42;;;;;;;-2.18;100.00;95541.78;5011118;28;20100;-77
2022/02/11 05:42:39;;;;;;;33.75;24.25;;;;;;;-2.10;100.00;95541.38;5009354;28;20050;-78
2022/02/11 05:45:05;;;;;;;28.23;18.65;;;;;;;-1.95;100.00;95544.81;4997739;28;20113;-78
2022/02/11 05:47:31;;;;;;;28.85;18.30;;;;;;;-1.83;100.00;95552.59;4997650;28;20022;-78
2022/02/11 05:49:57;;;;;;;40.05;22.70;;;;;;;-0.95;100.00;95544.38;4999840;28;20030;-78
2022/02/11 05:52:22;;;;;;;39.17;23.98;;;;;;;-1.06;100.00;95532.28;5000916;28;20033;-78
2022/02/11 05:54:48;;;;;;;58.65;32.42;;;;;;;-1.36;100.00;95519.56;5000767;28;20021;-78
2022/02/11 05:57:13;;;;;;;50.75;30.77;;;;;;;-1.38;100.00;95510.41;5014213;28;20128;-78
2022/02/11 05:59:39;;;;;;;39.38;25.10;;;;;;;-1.38;100.00;95518.03;4998648;28;20120;-78
2022/02/11 06:02:04;;;;;;;42.78;25.63;;;;;;;-1.43;100.00;95508.13;4989009;28;20030;-77
2022/02/11 06:04:29;;;;;;;31.27;19.58;;;;;;;-1.35;100.00;95522.94;4996620;28;20022;-78
2022/02/11 06:06:57;;;;;;;39.15;26.38;;;;;;;-0.85;100.00;95514.97;5012913;28;20537;-78
2022/02/11 06:09:23;;;;;;;44.65;29.42;;;;;;;-0.57;100.00;95512.47;5011473;28;20022;-77
2022/02/11 06:11:51;;;;;;;62.78;41.47;;;;;;;0.59;100.00;95509.56;5015054;28;20093;-77
2022/02/11 06:14:18;;;;;;;49.03;35.65;;;;;;;3.00;100.00;95487.91;4995209;28;20069;-77
2022/02/11 06:16:43;;;;;;;41.72;31.05;;;;;;;3.10;97.17;95486.31;5012700;28;20065;-78
2022/02/11 06:19:09;;;;;;;41.95;33.47;;;;;;;2.66;96.95;95485.19;5012317;28;20225;-77
2022/02/11 06:21:34;;;;;;;26.55;19.75;;;;;;;1.81;100.00;95490.41;5012948;28;20026;-78
2022/02/11 06:24:00;;;;;;;35.70;25.05;;;;;;;2.19;100.00;95492.03;5013476;28;20113;-77
2022/02/11 06:26:26;;;;;;;40.67;25.48;;;;;;;2.67;100.00;95493.69;5013232;28;20163;-78
2022/02/11 06:28:52;;;;;;;32.15;22.98;;;;;;;2.28;100.00;95493.97;4997462;28;20049;-78
2022/02/11 06:31:18;;;;;;;28.38;21.95;;;;;;;1.83;100.00;95497.97;5014268;28;20495;-77
2022/02/11 06:33:45;;;;;;;35.75;22.35;;;;;;;3.79;99.31;95495.56;5014072;28;20037;-78
2022/02/11 06:36:11;;;;;;;36.08;21.90;;;;;;;3.05;98.32;95503.75;4996608;28;20022;-79
2022/02/11 06:38:36;;;;;;;30.42;19.75;;;;;;;3.43;96.99;95504.28;5015301;28;20026;-78
2022/02/11 06:41:02;;;;;;;33.20;21.83;;;;;;;4.53;94.31;95494.91;4998979;28;20388;-79
2022/02/11 06:43:28;;;;;;;31.45;21.23;;;;;;;5.66;84.82;95500.22;5017653;28;20029;-81
2022/02/11 06:45:53;;;;;;;25.50;17.50;;;;;;;6.37;82.92;95493.34;5016262;28;20034;-81
2022/02/11 06:48:23;;;;;;;28.23;18.15;;;;;;;4.62;90.09;95501.09;4998884;28;20026;-80
2022/02/11 06:50:53;;;;;;;34.42;26.45;;;;;;;4.86;93.81;95495.75;5024686;28;20511;-81
2022/02/11 06:53:18;;;;;;;33.05;22.40;;;;;;;6.45;85.15;95493.53;5015784;28;20029;-80
2022/02/11 06:55:44;;;;;;;28.85;18.00;;;;;;;6.96;78.32;95489.91;5015336;28;20061;-77
2022/02/11 06:58:10;;;;;;;20.77;14.68;;;;;;;7.58;76.50;95484.31;5017640;28;20583;-78
2022/02/11 07:00:38;;;;;;;15.98;14.27;;;;;;;8.71;64.84;95481.38;5013422;28;20041;-77
2022/02/11 07:03:04;;;;;;;15.95;13.05;;;;;;;7.91;67.94;95465.72;5012667;28;20040;-77
2022/02/11 07:05:30;;;;;;;15.73;14.02;;;;;;;9.61;59.29;95480.34;5010733;28;20026;-79
2022/02/11 07:07:55;;;;;;;17.60;15.68;;;;;;;12.49;50.53;95469.69;5005709;28;20507;-79
2022/02/11 07:10:21;;;;;;;15.20;13.57;;;;;;;13.06;47.75;95472.00;5008787;28;20033;-78
2022/02/11 07:12:46;;;;;;;22.00;12.60;;;;;;;11.98;51.01;95471.00;4989072;28;20061;-79
2022/02/11 07:15:12;;;;;;;16.13;12.52;;;;;;;12.58;49.49;95473.09;4997076;28;20072;-79
2022/02/11 07:17:38;;;;;;;14.73;12.48;;;;;;;12.19;50.34;95480.06;5018861;28;20030;-77
2022/02/11 07:20:05;;;;;;;17.25;14.00;;;;;;;10.95;52.81;95476.88;5017790;28;20036;-76
2022/02/11 07:22:34;;;;;;;15.73;14.05;;;;;;;9.95;57.03;95484.59;5005244;28;20117;-76
2022/02/11 07:25:11;;;;;;;15.07;13.43;;;;;;;12.61;50.34;95483.13;5006816;28;20514;-77
2022/02/11 07:27:37;;;;;;;14.25;12.85;;;;;;;13.02;48.52;95481.13;5006582;28;20037;-77
2022/02/11 07:30:03;;;;;;;14.85;13.07;;;;;;;11.27;52.88;95477.91;5010340;28;20022;-77
2022/02/11 07:32:29;;;;;;;14.00;12.50;;;;;;;11.70;51.84;95476.72;5002193;28;20041;-77
2022/02/11 07:34:55;;;;;;;16.67;12.73;;;;;;;13.51;47.88;95473.78;5019573;28;20046;-76
2022/02/11 07:37:24;;;;;;;13.68;12.27;;;;;;;12.29;51.07;95471.09;5001565;28;20030;-79
2022/02/11 07:39:50;;;;;;;14.50;12.25;;;;;;;11.06;52.63;95468.00;5006483;28;20030;-75
2022/02/11 07:42:17;;;;;;;14.98;11.20;;;;;;;11.18;53.95;95460.69;4988367;28;20037;-76
2022/02/11 07:44:42;;;;;;;14.55;11.45;;;;;;;10.70;54.04;95464.84;5007639;28;20041;-75
2022/02/11 07:47:08;;;;;;;13.52;11.00;;;;;;;10.31;55.98;95467.16;5000737;28;20415;-76
2022/02/11 07:49:35;;;;;;;14.60;12.73;;;;;;;8.94;61.44;95468.84;5000219;28;20036;-76
2022/02/11 07:52:01;;;;;;;16.30;13.63;;;;;;;7.27;71.49;95476.75;4992028;28;20108;-76
2022/02/11 07:54:27;;;;;;;16.13;12.93;;;;;;;7.17;75.26;95480.28;5010347;28;20141;-76
2022/02/11 07:56:53;;;;;;;16.55;12.35;;;;;;;6.80;76.90;95473.25;5009179;28;20053;-75
2022/02/11 07:59:19;;;;;;;13.88;12.45;;;;;;;8.64;68.05;95469.19;5010136;28;20649;-75
2022/02/11 08:01:44;;;;;;;14.27;10.98;;;;;;;10.04;61.74;95468.16;5009957;28;20054;-75
2022/02/11 08:04:10;;;;;;;15.32;12.85;;;;;;;10.11;60.44;95465.78;5009901;28;20022;-75
2022/02/11 08:06:35;;;;;;;17.45;12.57;;;;;;;10.43;58.42;95459.94;5009860;28;20034;-75
2022/02/11 08:09:01;;;;;;;13.57;11.55;;;;;;;10.88;59.58;95460.38;5009184;28;20026;-75
2022/02/11 08:11:26;;;;;;;12.68;10.85;;;;;;;13.80;50.54;95452.22;5009983;28;20022;-75
2022/02/11 08:13:51;;;;;;;15.98;10.98;;;;;;;16.17;43.83;95451.13;5008695;28;20027;-75
2022/02/11 08:16:17;;;;;;;14.13;11.85;;;;;;;16.95;42.14;95447.25;5011018;28;20045;-75
2022/02/11 08:18:42;;;;;;;13.13;11.65;;;;;;;16.39;42.81;95446.59;5009696;28;20018;-76
2022/02/11 08:21:08;;;;;;;14.48;12.98;;;;;;;16.93;41.79;95446.63;4992965;28;20029;-75
2022/02/11 08:23:33;;;;;;;17.90;13.55;;;;;;;17.15;41.05;95455.94;4992958;28;20095;-75
2022/02/11 08:25:59;;;;;;;15.15;13.73;;;;;;;18.53;38.56;95448.84;5008652;28;20057;-76
2022/02/11 08:28:24;;;;;;;16.02;14.30;;;;;;;18.28;39.13;95447.88;4993369;28;20170;-75
2022/02/11 08:30:50;;;;;;;14.68;13.05;;;;;;;18.20;39.00;95442.88;5014752;28;20038;-76
2022/02/11 08:33:21;;;;;;;18.30;13.95;;;;;;;18.33;39.61;95446.25;5015665;28;20084;-76
2022/02/11 08:35:51;;;;;;;14.45;13.00;;;;;;;17.81;41.20;95448.97;5009494;28;20042;-75
2022/02/11 08:38:17;;;;;;;;;;;;;;;18.20;40.54;95435.81;5006306;28;20076;-76
2022/02/11 08:40:42;;;;;;;14.00;12.60;;;;;;;19.06;39.74;95431.03;5019237;28;19918;-75
2022/02/11 08:43:07;;;;;;;14.43;12.73;;;;;;;18.93;39.63;95431.09;5012386;28;20029;-75
2022/02/11 08:45:37;;;;;;;16.17;13.45;;;;;;;20.19;37.44;95427.31;5016947;28;20026;-75
2022/02/11 08:48:04;;;;;;;16.35;14.70;;;;;;;18.42;39.61;95434.53;5019390;28;20033;-75
2022/02/11 08:50:30;;;;;;;21.33;15.57;;;;;;;17.54;39.93;95437.66;4995511;28;20030;-75
2022/02/11 08:52:56;;;;;;;19.98;14.27;;;;;;;19.53;37.21;95431.53;5016773;28;20026;-75
2022/02/11 08:55:23;;;;;;;16.98;14.82;;;;;;;20.50;36.05;95421.94;5009304;28;20022;-74
2022/02/11 08:57:52;;;;;;;18.73;15.63;;;;;;;19.76;36.40;95434.41;5005397;28;20454;-74
2022/02/11 09:00:18;;;;;;;16.63;14.88;;;;;;;20.29;36.34;95417.09;5008820;28;20100;-75
2022/02/11 09:02:44;;;;;;;20.52;14.57;;;;;;;20.55;35.25;95417.84;5013732;28;20394;-75
2022/02/11 09:05:09;;;;;;;17.73;15.75;;;;;;;19.19;36.57;95412.56;4990866;28;20037;-76
2022/02/11 09:07:35;;;;;;;18.58;16.70;;;;;;;20.10;36.25;95417.31;5008150;28;20030;-75
2022/02/11 09:10:00;;;;;;;25.80;16.45;;;;;;;21.26;34.48;95418.72;4990787;28;20495;-74
2022/02/11 09:12:26;;;;;;;18.42;16.38;;;;;;;20.34;35.22;95413.81;5008780;28;20445;-75
2022/02/11 09:14:51;;;;;;;20.70;16.75;;;;;;;20.76;34.93;95414.75;5025852;28;20637;-74
2022/02/11 09:17:17;;;;;;;21.40;17.50;;;;;;;19.61;36.59;95408.44;5028337;28;20033;-74
2022/02/11 09:19:42;;;;;;;21.15;19.05;;;;;;;19.24;37.87;95411.91;5020013;28;20044;-75
2022/02/11 09:22:08;;;;;;;24.30;18.25;;;;;;;19.26;38.07;95409.91;5012684;28;20030;-76
2022/02/11 09:24:34;;;;;;;23.33;16.17;;;;;;;20.50;36.05;95406.16;5001480;28;20026;-74
2022/02/11 09:26:59;;;;;;;18.40;15.43;;;;;;;20.50;35.62;95413.25;5007877;28;20051;-73
2022/02/11 09:29:24;;;;;;;23.23;14.73;;;;;;;20.80;35.07;95405.38;5007989;28;20037;-74
2022/02/11 09:31:51;;;;;;;15.93;14.00;;;;;;;19.93;36.23;95399.47;4974905;28;20034;-74
2022/02/11 09:34:16;;;;;;;15.85;14.10;;;;;;;19.96;36.39;95406.09;5008894;28;20057;-74
2022/02/11 09:36:42;;;;;;;17.13;14.25;;;;;;;20.20;35.84;95396.53;5023661;28;20030;-74
2022/02/11 09:39:09;;;;;;;19.80;13.52;;;;;;;19.63;37.27;95395.06;5006412;28;20416;-74
2022/02/11 09:41:36;;;;;;;12.20;10.95;;;;;;;20.09;36.73;95395.44;5006907;28;20030;-74
2022/02/11 09:44:04;;;;;;;18.20;12.68;;;;;;;21.48;34.48;95384.75;5006188;28;20115;-74
2022/02/11 09:46:30;;;;;;;15.13;12.32;;;;;;;20.84;35.95;95378.38;5023459;28;20029;-74
2022/02/11 09:48:56;;;;;;;13.65;12.27;;;;;;;22.01;33.16;95376.78;5006140;28;20029;-74
2022/02/11 09:51:22;;;;;;;13.52;12.13;;;;;;;20.33;35.61;95378.00;5023420;28;20116;-75
2022/02/11 09:53:48;;;;;;;12.98;11.60;;;;;;;21.81;33.62;95368.38;5027467;28;20474;-74
2022/02/11 09:56:14;;;;;;;13.30;11.63;;;;;;;20.35;35.57;95371.53;5027663;28;20025;-74
2022/02/11 09:58:40;;;;;;;12.07;10.82;;;;;;;20.11;36.46;95374.97;5026652;28;20033;-73
2022/02/11 10:01:05;;;;;;;13.05;11.73;;;;;;;21.17;34.29;95370.03;5003635;28;20132;-74
2022/02/11 10:03:31;;;;;;;12.38;11.02;;;;;;;21.84;34.26;95366.06;5007241;28;20037;-74
2022/02/11 10:05:59;;;;;;;13.77;11.07;;;;;;;21.97;33.40;95370.34;4993065;28;20065;-74
2022/02/11 10:08:26;;;;;;;12.77;11.50;;;;;;;21.72;34.60;95375.03;5014860;28;20410;-75
2022/02/11 10:10:54;;;;;;;13.98;10.00;;;;;;;20.93;35.75;95366.47;5009779;28;20033;-74
2022/02/11 10:13:30;;;;;;;12.45;11.25;;;;;;;21.97;34.22;95365.06;4990142;28;20436;-74
2022/02/11 10:16:08;;;;;;;13.77;11.43;;;;;;;21.87;33.88;95364.81;4990365;28;20026;-73
2022/02/11 10:18:34;;;;;;;15.10;11.15;;;;;;;21.12;34.95;95364.63;4991648;28;20025;-75
2022/02/11 10:21:02;;;;;;;14.40;11.25;;;;;;;20.31;35.84;95346.66;4989862;28;20084;-74
2022/02/11 10:23:29;;;;;;;13.60;11.30;;;;;;;20.34;35.95;95342.78;5005014;28;20065;-74
2022/02/11 10:26:09;;;;;;;12.30;11.00;;;;;;;20.75;35.03;95336.75;5006112;28;20038;-74
2022/02/11 10:28:40;;;;;;;14.80;11.35;;;;;;;20.01;36.69;95335.25;5008194;28;20588;-75
2022/02/11 10:31:19;;;;;;;11.82;10.63;;;;;;;20.63;35.25;95328.03;4988052;28;20030;-75
2022/02/11 10:33:51;;;;;;;12.20;10.33;;;;;;;20.82;34.47;95327.75;5000263;28;20026;-74
2022/02/11 10:36:40;;;;;;;12.90;10.48;;;;;;;14.14;45.82;95330.06;5013512;28;20037;-74
2022/02/11 10:39:16;;;;;;;12.50;11.18;;;;;;;13.12;50.11;95328.28;5025594;28;20407;-74
2022/02/11 10:41:46;;;;;;;13.38;10.85;;;;;;;13.18;50.57;95325.78;4997044;28;20033;-75
2022/02/11 10:44:15;;;;;;;14.70;11.13;;;;;;;12.67;52.53;95321.34;4989473;28;20380;-75
2022/02/11 10:46:50;;;;;;;13.35;10.88;;;;;;;13.57;50.14;95315.16;4990412;28;20089;-75
2022/02/11 10:49:17;;;;;;;16.42;11.48;;;;;;;12.61;53.10;95315.06;5005239;28;20060;-74
2022/02/11 10:51:42;;;;;;;15.93;12.25;;;;;;;11.01;58.78;95307.78;5025204;28;20025;-75
2022/02/11 10:54:34;;;;;;;14.23;12.65;;;;;;;12.25;54.44;95303.59;5026997;28;20063;-76
2022/02/11 10:57:02;;;;;;;14.73;13.15;;;;;;;10.95;59.22;95303.25;5024347;28;20037;-76
2022/02/11 10:59:35;;;;;;;18.65;13.30;;;;;;;11.36;55.81;95306.59;4992146;28;20570;-75
2022/02/11 11:02:06;;;;;;;12.68;11.38;;;;;;;11.87;54.93;95300.09;5000492;28;20065;-75
2022/02/11 11:04:32;;;;;;;13.45;11.73;;;;;;;12.11;55.87;95297.34;4990707;28;20557;-75
2022/02/11 11:06:58;;;;;;;13.63;10.50;;;;;;;12.30;53.72;95290.09;5006567;28;20061;-75
2022/02/11 11:09:25;;;;;;;14.18;10.68;;;;;;;11.53;55.94;95283.97;5012487;28;20044;-75
2022/02/11 11:11:52;;;;;;;12.60;9.98;;;;;;;11.96;55.31;95287.88;5011288;28;20030;-76
2022/02/11 11:14:18;;;;;;;12.63;10.18;;;;;;;11.85;55.12;95285.66;5023360;28;20108;-76
2022/02/11 11:16:46;;;;;;;10.52;9.30;;;;;;;12.23;52.90;95284.81;4996530;28;20052;-77
2022/02/11 11:19:12;;;;;;;13.45;11.15;;;;;;;11.57;57.30;95274.88;4985986;28;20033;-76
2022/02/11 11:22:10;;;;;;;11.40;8.55;;;;;;;12.22;53.87;95277.16;5003167;28;20410;-76
2022/02/11 11:24:38;;;;;;;11.93;9.23;;;;;;;11.83;54.36;95267.66;4985347;28;20034;-76
2022/02/11 11:27:04;;;;;;;8.80;7.70;;;;;;;11.50;54.99;95263.56;4970249;28;20042;-76
2022/02/11 11:29:29;;;;;;;9.18;8.05;;;;;;;11.58;56.09;95266.13;4987417;28;20022;-76
2022/02/11 11:31:57;;;;;;;10.07;7.68;;;;;;;11.86;55.96;95256.94;4986142;28;20110;-76
2022/02/11 11:34:25;;;;;;;10.30;8.20;;;;;;;11.63;56.97;95249.06;4970657;28;20493;-76
2022/02/11 11:36:53;;;;;;;10.85;8.13;;;;;;;11.72;56.59;95257.66;4968204;28;20038;-76
2022/02/11 11:39:19;;;;;;;10.20;9.07;;;;;;;11.60;58.38;95248.59;4985962;28;20018;-76
2022/02/11 11:41:59;;;;;;;12.70;8.07;;;;;;;11.70;55.92;95240.63;4986303;28;20061;-77
2022/02/11 11:44:27;;;;;;;10.03;8.93;;;;;;;11.64;59.82;95239.50;4986947;28;20045;-76
2022/02/11 11:46:54;;;;;;;12.05;8.15;;;;;;;11.88;57.27;95229.03;4986991;28;20034;-76
2022/02/11 11:49:21;;;;;;;7.68;6.97;;;;;;;11.52;57.17;95223.53;4987388;28;20030;-76
2022/02/11 11:51:46;;;;;;;9.43;7.55;;;;;;;11.86;56.47;95219.78;4987441;28;20027;-77
2022/02/11 11:54:18;;;;;;;10.93;7.70;;;;;;;11.70;56.61;95212.06;4987166;28;20029;-76
2022/02/11 11:56:53;;;;;;;10.43;7.63;;;;;;;11.82;56.60;95213.31;4988539;28;20414;-76
2022/02/11 11:59:36;;;;;;;8.82;7.90;;;;;;;11.90;59.14;95206.31;4987425;28;20033;-76
2022/02/11 12:02:10;;;;;;;9.30;7.78;;;;;;;12.10;58.90;95199.66;4986302;28;20030;-76
2022/02/11 12:04:41;;;;;;;9.18;8.02;;;;;;;11.87;57.74;95193.69;4987130;28;20030;-76
2022/02/11 12:07:06;;;;;;;9.23;7.20;;;;;;;12.12;56.74;95195.13;5000922;28;20129;-76
2022/02/11 12:09:32;;;;;;;9.65;8.00;;;;;;;12.07;57.16;95188.84;5009091;28;20105;-76
2022/02/11 12:12:03;;;;;;;11.35;7.93;;;;;;;12.10;56.45;95186.69;5005872;28;20030;-77
2022/02/11 12:14:31;;;;;;;8.82;7.65;;;;;;;12.03;57.06;95184.97;5003566;28;20124;-77
2022/02/11 12:16:58;;;;;;;8.68;7.47;;;;;;;12.13;57.24;95175.16;4984664;28;20500;-76
2022/02/11 12:19:24;;;;;;;9.20;8.27;;;;;;;12.20;57.09;95172.69;4982064;28;20565;-77
2022/02/11 12:21:50;;;;;;;9.10;8.07;;;;;;;12.31;57.48;95174.84;4989671;28;20037;-77
2022/02/11 12:29:55;;;;;;;8.35;6.60;;;;;;;12.23;56.63;95173.13;5006284;28;20112;-76
2022/02/11 12:32:23;;;;;;;7.40;6.70;;;;;;;12.34;56.87;95164.09;4988187;28;20026;-76
2022/02/11 12:35:00;;;;;;;6.43;5.75;;;;;;;12.18;57.23;95166.84;4990007;28;20054;-77
2022/02/11 12:37:27;;;;;;;7.32;4.97;;;;;;;12.52;53.36;95165.38;4972629;28;20121;-77
2022/02/11 12:40:11;;;;;;;6.85;4.65;;;;;;;12.35;53.05;95160.53;4990457;28;20146;-77
2022/02/11 12:42:45;;;;;;;4.85;4.40;;;;;;;12.32;53.35;95159.09;5006416;28;20026;-77
2022/02/11 12:45:13;;;;;;;6.68;4.75;;;;;;;12.21;55.93;95150.91;5018795;28;20404;-76
2022/02/11 12:47:40;;;;;;;9.38;5.65;;;;;;;12.38;55.07;95150.59;5013733;28;20094;-76
2022/02/11 12:50:09;;;;;;;9.43;5.50;;;;;;;12.50;54.80;95150.97;5007572;28;20032;-78
2022/02/11 12:52:36;;;;;;;5.53;4.93;;;;;;;12.48;54.68;95148.56;5015759;28;20457;-77
2022/02/11 12:55:11;;;;;;;6.22;5.28;;;;;;;12.32;55.33;95150.50;5001128;28;20033;-77
2022/02/11 12:57:44;;;;;;;5.47;4.80;;;;;;;12.41;54.42;95134.66;5000280;28;20075;-76
2022/02/11 13:00:20;;;;;;;5.40;4.90;;;;;;;12.65;53.52;95143.97;5028513;28;20060;-76
2022/02/11 13:02:47;;;;;;;9.25;5.28;;;;;;;12.76;54.09;95140.13;5010914;28;20064;-76
2022/02/11 13:05:16;;;;;;;6.80;5.53;;;;;;;12.32;56.68;95132.31;5028536;28;20457;-75
2022/02/11 13:08:25;;;;;;;6.82;5.57;;;;;;;12.06;56.35;95135.31;5006654;28;20470;-75
2022/02/11 13:10:58;;;;;;;6.13;5.40;;;;;;;12.10;55.52;95129.56;5007607;28;20525;-76
2022/02/11 13:13:24;;;;;;;6.00;5.47;;;;;;;12.29;56.54;95137.84;5016785;28;20510;-75
2022/02/11 13:15:54;;;;;;;5.95;5.35;;;;;;;12.13;56.55;95124.06;5017082;28;20085;-76
2022/02/11 13:18:22;;;;;;;7.32;5.63;;;;;;;12.27;56.76;95135.44;5016920;28;20049;-76
2022/02/11 13:20:52;;;;;;;5.30;4.68;;;;;;;12.19;56.31;95130.31;5016909;28;20033;-76
2022/02/11 13:23:20;;;;;;;6.38;5.70;;;;;;;12.15;55.85;95132.47;5019726;28;20021;-76
2022/02/11 13:25:46;;;;;;;6.97;5.13;;;;;;;12.27;57.39;95129.41;5026378;28;20041;-76
2022/02/11 13:28:16;;;;;;;7.25;5.30;;;;;;;12.61;55.18;95132.34;5003942;28;20022;-75
2022/02/11 13:30:45;;;;;;;7.65;5.80;;;;;;;12.79;55.25;95124.19;5007468;28;20038;-76
2022/02/11 13:33:29;;;;;;;7.90;5.10;;;;;;;12.92;55.37;95114.78;5008641;28;20088;-75
2022/02/11 13:36:00;;;;;;;7.82;5.78;;;;;;;13.23;52.83;95108.56;5004498;28;20046;-76
2022/02/11 13:38:31;;;;;;;5.95;5.10;;;;;;;12.76;56.37;95107.16;5007695;28;20483;-75
2022/02/11 13:40:58;;;;;;;7.10;6.28;;;;;;;12.34;59.79;95117.34;5008293;28;20384;-76
2022/02/11 13:43:28;;;;;;;10.98;5.95;;;;;;;12.38;61.94;95113.41;5006953;28;20030;-75
2022/02/11 13:46:02;;;;;;;8.70;6.28;;;;;;;12.35;60.53;95116.38;4987669;28;20452;-76
2022/02/11 13:48:29;;;;;;;6.65;5.38;;;;;;;12.53;60.59;95117.63;4988739;28;20049;-76
2022/02/11 13:51:00;;;;;;;6.60;5.97;;;;;;;12.48;60.82;95108.78;4990095;28;20088;-75
2022/02/11 13:53:29;;;;;;;7.35;6.38;;;;;;;12.41;60.22;95113.06;5009665;28;20026;-75
2022/02/11 13:55:55;;;;;;;7.43;5.70;;;;;;;12.31;60.71;95115.09;5007924;28;20037;-76
2022/02/11 13:58:20;;;;;;;6.03;5.32;;;;;;;12.32;59.97;95117.53;4991460;28;20022;-75
2022/02/11 14:00:46;;;;;;;8.18;6.25;;;;;;;12.43;59.70;95114.50;5007126;28;20164;-75
2022/02/11 14:03:25;;;;;;;7.85;5.43;;;;;;;12.33;61.14;95113.94;5006884;28;20092;-75
2022/02/11 14:05:54;;;;;;;7.30;6.10;;;;;;;12.23;62.75;95110.81;5007767;28;20428;-75
2022/02/11 14:08:21;;;;;;;8.77;6.22;;;;;;;12.20;61.95;95105.16;4990324;28;20034;-75
2022/02/11 14:10:48;;;;;;;6.70;5.50;;;;;;;12.26;61.97;95101.84;5008352;28;20033;-75
2022/02/11 14:13:14;;;;;;;6.80;5.65;;;;;;;12.32;62.19;95106.34;5006744;28;20069;-75
2022/02/11 14:15:41;;;;;;;8.68;6.45;;;;;;;12.64;61.61;95106.00;5007799;28;20034;-75
2022/02/11 14:18:07;;;;;;;6.22;5.63;;;;;;;12.91;58.80;95101.94;4990675;28;20522;-75
2022/02/11 14:20:37;;;;;;;6.35;4.93;;;;;;;13.03;55.00;95096.13;4990645;28;20376;-77
2022/02/11 14:23:13;;;;;;;6.00;4.60;;;;;;;12.89;55.24;95096.13;5008096;28;20116;-76
2022/02/11 14:25:42;;;;;;;6.63;4.75;;;;;;;12.81;55.29;95097.00;5006022;28;20515;-76
2022/02/11 14:28:08;;;;;;;6.28;4.80;;;;;;;12.47;55.88;95100.16;5008686;28;20026;-75
2022/02/11 14:30:33;;;;;;;7.93;4.78;;;;;;;12.47;56.45;95104.56;5007695;28;20408;-75
2022/02/11 14:32:59;;;;;;;9.55;4.68;;;;;;;12.60;54.89;95102.16;4990128;28;20033;-75
2022/02/11 14:35:25;;;;;;;5.45;4.72;;;;;;;12.64;54.56;95093.00;5006685;28;20507;-76
2022/02/11 14:37:50;;;;;;;5.18;4.50;;;;;;;12.47;55.60;95096.75;5006255;28;20124;-77
2022/02/11 14:40:15;;;;;;;6.65;4.78;;;;;;;12.42;56.20;95102.50;5007978;28;20100;-76
2022/02/11 14:42:41;;;;;;;6.70;6.03;;;;;;;12.36;56.06;95094.63;5007735;28;20423;-76
2022/02/11 14:45:09;;;;;;;4.93;3.97;;;;;;;12.30;54.92;95088.31;5002115;28;20029;-76
2022/02/11 14:47:35;;;;;;;5.65;4.38;;;;;;;12.23;55.40;95090.03;4990289;28;20446;-76
2022/02/11 14:50:00;;;;;;;10.48;4.90;;;;;;;12.08;57.59;95100.38;4990646;28;20088;-76
2022/02/11 14:52:26;;;;;;;5.05;3.95;;;;;;;11.91;57.64;95087.75;4999999;28;20507;-79
2022/02/11 14:54:54;;;;;;;8.05;3.90;;;;;;;11.79;58.91;95091.72;5006367;28;20043;-78
2022/02/11 14:57:19;;;;;;;5.10;3.47;;;;;;;11.76;58.15;95094.66;5008098;28;20034;-76
2022/02/11 14:59:45;;;;;;;84.78;59.15;;;;;;;11.52;60.00;95087.84;5014243;28;20060;-76
2022/02/11 15:02:10;;;;;;;10.43;8.07;;;;;;;11.15;60.00;95080.78;5015303;28;20478;-76
2022/02/11 15:04:36;;;;;;;4.72;3.92;;;;;;;11.10;58.91;95090.88;4978646;28;23327;-75
2022/02/11 15:07:03;;;;;;;3.28;2.85;;;;;;;10.97;58.89;95083.63;5003144;28;20045;-76
2022/02/11 15:09:29;;;;;;;4.57;2.72;;;;;;;10.77;60.55;95086.81;4986064;28;20104;-76
2022/02/11 15:11:54;;;;;;;7.43;6.25;;;;;;;10.50;62.19;95100.97;4985733;28;20038;-76
2022/02/11 15:14:22;;;;;;;10.02;7.88;;;;;;;10.22;63.50;95087.63;5003890;28;20034;-76
2022/02/11 15:16:48;;;;;;;19.73;13.95;;;;;;;10.11;62.81;95093.13;4999759;28;20026;-76
2022/02/11 15:19:14;;;;;;;20.80;15.23;;;;;;;10.05;62.65;95088.56;4986658;28;20557;-76
2022/02/11 15:21:39;;;;;;;12.68;8.80;;;;;;;9.66;64.24;95085.06;5001280;28;20471;-76
2022/02/11 15:24:05;;;;;;;8.70;7.80;;;;;;;9.25;66.53;95086.78;4984861;28;20026;-76